Map

Track Data

SID SEASON NUMBER BASIN SUBBASIN NAME ISO_TIME NATURE LAT LON WMO_WIND WMO_PRES WMO_AGENCY TRACK_TYPE DIST2LAND LANDFALL IFLAG USA_AGENCY USA_ATCF_ID USA_LAT USA_LON USA_RECORD USA_STATUS USA_WIND USA_PRES USA_SSHS USA_R34_NE USA_R34_SE USA_R34_SW USA_R34_NW USA_R50_NE USA_R50_SE USA_R50_SW USA_R50_NW USA_R64_NE USA_R64_SE USA_R64_SW USA_R64_NW USA_POCI USA_ROCI USA_RMW USA_EYE TOKYO_LAT TOKYO_LON TOKYO_GRADE TOKYO_WIND TOKYO_PRES TOKYO_R50_DIR TOKYO_R50_LONG TOKYO_R50_SHORT TOKYO_R30_DIR TOKYO_R30_LONG TOKYO_R30_SHORT TOKYO_LAND CMA_LAT CMA_LON CMA_CAT CMA_WIND CMA_PRES HKO_LAT HKO_LON HKO_CAT HKO_WIND HKO_PRES NEWDELHI_LAT NEWDELHI_LON NEWDELHI_GRADE NEWDELHI_WIND NEWDELHI_PRES NEWDELHI_CI NEWDELHI_DP NEWDELHI_POCI REUNION_LAT REUNION_LON REUNION_TYPE REUNION_WIND REUNION_PRES REUNION_TNUM REUNION_CI REUNION_RMW REUNION_R34_NE REUNION_R34_SE REUNION_R34_SW REUNION_R34_NW REUNION_R50_NE REUNION_R50_SE REUNION_R50_SW REUNION_R50_NW REUNION_R64_NE REUNION_R64_SE REUNION_R64_SW REUNION_R64_NW BOM_LAT BOM_LON BOM_TYPE BOM_WIND BOM_PRES BOM_TNUM BOM_CI BOM_RMW BOM_R34_NE BOM_R34_SE BOM_R34_SW BOM_R34_NW BOM_R50_NE BOM_R50_SE BOM_R50_SW BOM_R50_NW BOM_R64_NE BOM_R64_SE BOM_R64_SW BOM_R64_NW BOM_ROCI BOM_POCI BOM_EYE BOM_POS_METHOD BOM_PRES_METHOD NADI_LAT NADI_LON NADI_CAT NADI_WIND NADI_PRES WELLINGTON_LAT WELLINGTON_LON WELLINGTON_WIND WELLINGTON_PRES DS824_LAT DS824_LON DS824_STAGE DS824_WIND DS824_PRES TD9636_LAT TD9636_LON TD9636_STAGE TD9636_WIND TD9636_PRES TD9635_LAT TD9635_LON TD9635_WIND TD9635_PRES TD9635_ROCI NEUMANN_LAT NEUMANN_LON NEUMANN_CLASS NEUMANN_WIND NEUMANN_PRES MLC_LAT MLC_LON MLC_CLASS MLC_WIND MLC_PRES USA_GUST BOM_GUST BOM_GUST_PER REUNION_GUST REUNION_GUST_PER USA_SEAHGT USA_SEARAD_NE USA_SEARAD_SE USA_SEARAD_SW USA_SEARAD_NW STORM_SPEED STORM_DIR
1928278N15133 1928 58 WP MM NOT_NAMED 1928-10-03 21:00:00 NR 14.8000 132.700 main 831 819 __________O___ -1 14.8000 132.700 7 6 317
1928278N15133 1928 58 WP MM NOT_NAMED 1928-10-04 00:00:00 NR 15.0283 132.481 main 819 808 __________P___ -1 15.0283 132.481 7 6 318
1928278N15133 1928 58 WP MM NOT_NAMED 1928-10-04 03:00:00 NR 15.2652 132.270 main 812 797 __________P___ -1 15.2652 132.270 7 6 321
1928278N15133 1928 58 WP MM NOT_NAMED 1928-10-04 06:00:00 NR 15.5195 132.074 main 802 794 __________P___ -1 15.5195 132.074 7 6 326
1928278N15133 1928 58 WP MM NOT_NAMED 1928-10-04 09:00:00 NR 15.8000 131.900 main 799 796 __________O___ -1 15.8000 131.900 4 7 333
1928278N15133 1928 58 WP MM NOT_NAMED 1928-10-04 12:00:00 NR 16.1130 131.757 main 807 798 __________P___ -1 16.1130 131.757 4 7 340
1928278N15133 1928 58 WP MM NOT_NAMED 1928-10-04 15:00:00 NR 16.4549 131.653 main 823 814 __________P___ -1 16.4549 131.653 4 7 348
1928278N15133 1928 58 WP MM NOT_NAMED 1928-10-04 18:00:00 NR 16.8193 131.598 main 834 834 __________P___ -1 16.8193 131.598 4 8 355
1928278N15133 1928 58 WP MM NOT_NAMED 1928-10-04 21:00:00 NR 17.2000 131.600 main 855 855 __________O___ -1 17.2000 131.600 4 8 4
1928278N15133 1928 58 WP MM NOT_NAMED 1928-10-05 00:00:00 NR 17.5978 131.659 main 884 884 __________P___ -1 17.5978 131.659 4 8 12
1928278N15133 1928 58 WP MM NOT_NAMED 1928-10-05 03:00:00 NR 18.0075 131.775 main 914 914 __________P___ -1 18.0075 131.775 4 9 17
1928278N15133 1928 58 WP MM NOT_NAMED 1928-10-05 06:00:00 NR 18.4134 131.928 main 946 946 __________P___ -1 18.4134 131.928 4 9 21
1928278N15133 1928 58 WP MM NOT_NAMED 1928-10-05 09:00:00 NR 18.8000 132.100 main 987 987 __________O___ -1 18.8000 132.100 4 8 23
1928278N15133 1928 58 WP MM NOT_NAMED 1928-10-05 12:00:00 NR 19.1547 132.261 main 1029 1029 __________P___ -1 19.1547 132.261 4 8 25
1928278N15133 1928 58 WP MM NOT_NAMED 1928-10-05 15:00:00 NR 19.4875 132.435 main 1057 1057 __________P___ -1 19.4875 132.435 4 7 27
1928278N15133 1928 58 WP MM NOT_NAMED 1928-10-05 18:00:00 NR 19.8015 132.617 main 1093 1093 __________P___ -1 19.8015 132.617 4 7 29
1928278N15133 1928 58 WP MM NOT_NAMED 1928-10-05 21:00:00 NR 20.1000 132.800 main 1118 1118 __________O___ -1 20.1000 132.800 4 7 29
1928278N15133 1928 58 WP MM NOT_NAMED 1928-10-06 00:00:00 NR 20.4056 132.979 main 1144 1144 __________P___ -1 20.4056 132.979 4 7 29
1928278N15133 1928 58 WP MM NOT_NAMED 1928-10-06 03:00:00 NR 20.6950 133.158 main 1170 1157 __________P___ -1 20.6950 133.158 4 7 31
1928278N15133 1928 58 WP MM NOT_NAMED 1928-10-06 06:00:00 NR 20.9618 133.332 main 1146 1129 __________P___ -1 20.9618 133.332 4 6 32
1928278N15133 1928 58 WP MM NOT_NAMED 1928-10-06 09:00:00 NR 21.2000 133.500 main 1129 1121 __________O___ -1 21.2000 133.500 4 4 45
1928278N15133 1928 58 WP MM NOT_NAMED 1928-10-06 12:00:00 NR 21.2739 133.670 main 1123 1123 __________P___ -1 21.2739 133.670 4 3 66
1928278N15133 1928 58 WP MM NOT_NAMED 1928-10-06 15:00:00 NR 21.3403 133.831 main 1126 1107 __________P___ -1 21.3403 133.831 4 4 50
1928278N15133 1928 58 WP MM NOT_NAMED 1928-10-06 18:00:00 NR 21.5115 133.977 main 1110 1070 __________P___ -1 21.5115 133.977 4 6 24
1928278N15133 1928 58 WP MM NOT_NAMED 1928-10-06 21:00:00 NR 21.9000 134.100 main 1070 1000 __________O___ -1 21.9000 134.100 4 12 9
1928278N15133 1928 58 WP MM NOT_NAMED 1928-10-07 00:00:00 NR 22.6532 134.177 main 989 895 __________P___ -1 22.6532 134.177 4 17 4
1928278N15133 1928 58 WP MM NOT_NAMED 1928-10-07 03:00:00 NR 23.6254 134.237 main 895 797 __________P___ -1 23.6254 134.237 4 21 3
1928278N15133 1928 58 WP MM NOT_NAMED 1928-10-07 06:00:00 NR 24.7097 134.303 main 787 693 __________P___ -1 24.7097 134.303 4 22 4
1928278N15133 1928 58 WP MM NOT_NAMED 1928-10-07 09:00:00 NR 25.8000 134.400 main 683 608 __________O___ -1 25.8000 134.400 4 19 3
1928278N15133 1928 58 WP MM NOT_NAMED 1928-10-07 12:00:00 NR 26.6267 134.411 main 608 537 __________P___ -1 26.6267 134.411 4 17 2
1928278N15133 1928 58 WP MM NOT_NAMED 1928-10-07 15:00:00 NR 27.4569 134.478 main 528 469 __________P___ -1 27.4569 134.478 4 18 8
1928278N15133 1928 58 WP MM NOT_NAMED 1928-10-07 18:00:00 NR 28.3836 134.705 main 461 418 __________P___ -1 28.3836 134.705 4 21 17
1928278N15133 1928 58 WP MM NOT_NAMED 1928-10-07 21:00:00 NR 29.5000 135.200 main 413 291 __________O___ -1 29.5000 135.200 4 28 27
1928278N15133 1928 58 WP MM NOT_NAMED 1928-10-08 00:00:00 NR 30.8786 136.150 main 281 178 __________P___ -1 30.8786 136.150 4 35 33
1928278N15133 1928 58 WP MM NOT_NAMED 1928-10-08 03:00:00 NR 32.4443 137.396 main 185 67 __________P___ -1 32.4443 137.396 4 40 34
1928278N15133 1928 58 WP MM NOT_NAMED 1928-10-08 06:00:00 NR 34.1361 138.796 main 55 0 __________P___ -1 34.1361 138.796 4 42 34
1928278N15133 1928 58 WP MM NOT_NAMED 1928-10-08 09:00:00 NR 35.9000 140.200 main 0 0 __________O___ -1 35.9000 140.200 4 42 31
1928278N15133 1928 58 WP MM NOT_NAMED 1928-10-08 12:00:00 NR 37.6979 141.480 main 49 28 __________P___ -1 37.6979 141.480 4 41 28
1928278N15133 1928 58 WP MM NOT_NAMED 1928-10-08 15:00:00 NR 39.5202 142.653 main 51 51 __________P___ -1 39.5202 142.653 4 41 26
1928278N15133 1928 58 WP MM NOT_NAMED 1928-10-08 18:00:00 NR 41.3588 143.774 main 74 0 __________P___ -1 41.3588 143.774 4 40 25
1928278N15133 1928 58 WP MM NOT_NAMED 1928-10-08 21:00:00 NR 43.2000 144.900 main 0 __________O___ -1 43.2000 144.900 4 40 24

Digital Typhoon Data and Search

About IBTrACS Database

This database is a web-friendly format of International Best Track Archive for Climate Stewardship (IBTrACS), a global best track data archive curated by NOAA dating back to 1842.

Updated: 2021-10-08